| time (UTC) | temp F | wind direction | speed MPH | gust MPH | rain 1hr in | rain 24hr in | rain mn in | humidity % | barometer mb |
| 20260503190051 | 62 | 181 | 0.0 | 7.0 | 0.00 | 0.00 | 0.00 | 40 | 1018.6 |
| 20260503184542 | 62 | 171 | 0.0 | 9.0 | 0.00 | 0.00 | 0.00 | 44 | 1018.8 |
| 20260503183031 | 62 | 64 | 1.0 | 10.0 | 0.00 | 0.00 | 0.00 | 39 | 1019.0 |
| 20260503181532 | 61 | 194 | 3.0 | 7.0 | 0.00 | 0.00 | 0.00 | 39 | 1019.4 |
| 20260503180028 | 61 | 351 | 2.0 | 8.0 | 0.00 | 0.00 | 0.00 | 40 | 1019.5 |
| 20260503174524 | 61 | 277 | 0.0 | 6.0 | 0.00 | 0.00 | 0.00 | 38 | 1019.7 |
| 20260503173023 | 60 | 194 | 0.0 | 2.0 | 0.00 | 0.00 | 0.00 | 40 | 1019.9 |
| 20260503171521 | 60 | 173 | 0.0 | 4.0 | 0.00 | 0.00 | 0.00 | 40 | 1020.1 |
| 20260503081556 | 40 | 34 | 0.0 | 0.0 | 0.00 | 0.00 | 0.00 | 80 | 1019.2 |
| 20260503071543 | 42 | 34 | 0.0 | 1.0 | 0.00 | 0.00 | 0.00 | 77 | 1018.8 |
| 20260503054536 | 43 | 34 | 0.0 | 0.0 | 0.00 | 0.00 | 0.00 | 77 | 1018.5 |
| 20260503053028 | 44 | 34 | 0.0 | 0.0 | 0.00 | 0.00 | 0.00 | 76 | 1018.4 |
| 20260503051526 | 44 | 34 | 0.0 | 3.0 | 0.00 | 0.00 | 0.00 | 74 | 1018.5 |
| 20260503050024 | 44 | 36 | 0.0 | 4.0 | 0.00 | 0.00 | 0.00 | 74 | 1018.4 |
| 20260503044537 | 44 | 42 | 0.0 | 2.0 | 0.00 | 0.00 | 0.00 | 73 | 1018.3 |
| 20260503043023 | 45 | 101 | 0.0 | 2.0 | 0.00 | 0.00 | 0.00 | 74 | 1018.3 |
| 20260503041519 | 45 | 16 | 0.0 | 3.0 | 0.00 | 0.00 | 0.00 | 73 | 1018.1 |
| 20260503040017 | 45 | 16 | 0.0 | 2.0 | 0.00 | 0.00 | 0.00 | 72 | 1018.0 |
| 20260503034515 | 46 | 15 | 0.0 | 4.0 | 0.00 | 0.00 | 0.00 | 73 | 1017.9 |
| 20260503033013 | 46 | 22 | 0.0 | 4.0 | 0.00 | 0.00 | 0.00 | 72 | 1017.9 |
| 20260503031510 | 47 | 21 | 0.0 | 1.0 | 0.00 | 0.00 | 0.00 | 71 | 1017.9 |
| 20260503030015 | 47 | 20 | 0.0 | 0.0 | 0.00 | 0.00 | 0.00 | 69 | 1017.9 |
| 20260503024506 | 48 | 20 | 0.0 | 5.0 | 0.00 | 0.00 | 0.00 | 67 | 1017.9 |
| 20260503023003 | 48 | 49 | 0.0 | 1.0 | 0.00 | 0.00 | 0.00 | 66 | 1017.7 |
| 20260503021502 | 49 | 52 | 0.0 | 0.0 | 0.00 | 0.00 | 0.00 | 66 | 1017.7 |
| 20260503020104 | 49 | 56 | 0.0 | 0.0 | 0.00 | 0.00 | 0.00 | 68 | 1017.5 |
| 20260503014559 | 49 | 57 | 0.0 | 0.0 | 0.00 | 0.00 | 0.00 | 67 | 1017.3 |
| 20260503013056 | 49 | 59 | 0.0 | 0.0 | 0.00 | 0.00 | 0.00 | 68 | 1017.2 |
| 20260503011604 | 49 | 92 | 0.0 | 3.0 | 0.00 | 0.00 | 0.00 | 65 | 1016.9 |
| 20260503010052 | 50 | 92 | 0.0 | 0.0 | 0.00 | 0.00 | 0.00 | 65 | 1016.7 |
| 20260503004548 | 50 | 94 | 0.0 | 4.0 | 0.00 | 0.00 | 0.00 | 63 | 1016.6 |
| 20260503003045 | 51 | 26 | 0.0 | 4.0 | 0.00 | 0.00 | 0.00 | 61 | 1016.5 |
| 20260503001552 | 52 | 25 | 0.0 | 1.0 | 0.00 | 0.00 | 0.00 | 60 | 1016.3 |
| 20260503000017 | 53 | 25 | 0.0 | 3.0 | 0.00 | 0.00 | 0.00 | 58 | 1016.1 |
| 20260502234527 | 53 | 26 | 0.0 | 5.0 | 0.00 | 0.00 | 0.00 | 58 | 1015.9 |
| 20260502233013 | 54 | 21 | 0.0 | 3.0 | 0.00 | 0.00 | 0.00 | 58 | 1015.9 |
| 20260502231521 | 54 | 22 | 0.0 | 2.0 | 0.00 | 0.00 | 0.00 | 58 | 1015.9 |
| 20260502230006 | 54 | 355 | 0.0 | 2.0 | 0.00 | 0.00 | 0.00 | 56 | 1015.8 |
| 20260502223001 | 56 | 34 | 0.0 | 2.0 | 0.00 | 0.00 | 0.00 | 56 | 1015.8 |
| 20260502221602 | 55 | 10 | 0.0 | 3.0 | 0.00 | 0.00 | 0.00 | 58 | 1015.5 |
| 20260502220100 | 55 | 5 | 0.0 | 5.0 | 0.00 | 0.00 | 0.00 | 58 | 1015.4 |
| 20260502214601 | 53 | 343 | 0.0 | 0.0 | 0.00 | 0.00 | 0.00 | 64 | 1015.8 |
| 20260502213058 | 53 | 350 | 0.0 | 6.0 | 0.00 | 0.00 | 0.00 | 62 | 1015.8 |
| 20260502211601 | 54 | 37 | 1.0 | 12.0 | 0.00 | 0.00 | 0.00 | 58 | 1015.8 |
| 20260502210058 | 55 | 5 | 1.0 | 9.0 | 0.00 | 0.00 | 0.00 | 56 | 1015.7 |
| 20260502204556 | 56 | 30 | 0.0 | 4.0 | 0.00 | 0.00 | 0.00 | 55 | 1015.6 |
| 20260502203055 | 57 | 355 | 2.0 | 6.0 | 0.00 | 0.00 | 0.00 | 53 | 1015.6 |
| 20260502201601 | 57 | 88 | 0.0 | 7.0 | 0.00 | 0.00 | 0.00 | 55 | 1015.5 |
| 20260502194559 | 57 | 306 | 0.0 | 7.0 | 0.00 | 0.00 | 0.00 | 52 | 1015.6 |
| 20260502193104 | 57 | 34 | 0.0 | 0.0 | 0.00 | 0.00 | 0.00 | 52 | 1015.6 |
| 20260502191559 | 57 | 344 | 0.0 | 3.0 | 0.00 | 0.00 | 0.00 | 53 | 1015.6 |